sensor_id;sensor_type;location;lat;lon;timestamp;pressure;altitude;pressure_sealevel;temperature;humidity
58843;BME280;44614;54.356;10.100;2022-12-07T00:02:21;100859.03;;;0.88;100.00
58843;BME280;44614;54.356;10.100;2022-12-07T00:04:48;100857.66;;;0.84;100.00
58843;BME280;44614;54.356;10.100;2022-12-07T00:07:14;100832.66;;;0.64;100.00
58843;BME280;44614;54.356;10.100;2022-12-07T00:09:39;100862.84;;;0.78;100.00
58843;BME280;44614;54.356;10.100;2022-12-07T00:12:07;100859.44;;;0.76;100.00
58843;BME280;44614;54.356;10.100;2022-12-07T00:14:33;100858.22;;;0.70;100.00
58843;BME280;44614;54.356;10.100;2022-12-07T00:16:58;100854.81;;;0.68;100.00
58843;BME280;44614;54.356;10.100;2022-12-07T00:19:24;100836.16;;;0.57;100.00
58843;BME280;44614;54.356;10.100;2022-12-07T00:21:49;100838.59;;;0.68;100.00
58843;BME280;44614;54.356;10.100;2022-12-07T00:24:14;100833.50;;;0.65;100.00
58843;BME280;44614;54.356;10.100;2022-12-07T00:26:41;100825.88;;;0.60;100.00
58843;BME280;44614;54.356;10.100;2022-12-07T00:29:11;100832.66;;;0.64;100.00
58843;BME280;44614;54.356;10.100;2022-12-07T00:31:38;100838.06;;;0.64;100.00
58843;BME280;44614;54.356;10.100;2022-12-07T00:34:05;100835.38;;;0.64;100.00
58843;BME280;44614;54.356;10.100;2022-12-07T00:36:31;100837.75;;;0.67;100.00
58843;BME280;44614;54.356;10.100;2022-12-07T00:38:58;100838.47;;;0.69;100.00
58843;BME280;44614;54.356;10.100;2022-12-07T00:41:25;100834.75;;;0.70;100.00
58843;BME280;44614;54.356;10.100;2022-12-07T00:43:50;100830.34;;;0.69;100.00
58843;BME280;44614;54.356;10.100;2022-12-07T00:46:17;100820.88;;;0.65;100.00
58843;BME280;44614;54.356;10.100;2022-12-07T00:48:43;100810.91;;;0.66;100.00
58843;BME280;44614;54.356;10.100;2022-12-07T00:51:10;100813.28;;;0.69;100.00
58843;BME280;44614;54.356;10.100;2022-12-07T00:53:37;100799.41;;;0.64;100.00
58843;BME280;44614;54.356;10.100;2022-12-07T00:56:13;100806.34;;;0.66;100.00
58843;BME280;44614;54.356;10.100;2022-12-07T00:58:39;100808.19;;;0.66;100.00
58843;BME280;44614;54.356;10.100;2022-12-07T01:01:05;100808.34;;;0.64;100.00
58843;BME280;44614;54.356;10.100;2022-12-07T01:03:31;100762.78;;;0.43;100.00
58843;BME280;44614;54.356;10.100;2022-12-07T01:05:57;100782.13;;;0.57;100.00
58843;BME280;44614;54.356;10.100;2022-12-07T01:08:24;100801.25;;;0.63;100.00
58843;BME280;44614;54.356;10.100;2022-12-07T01:10:56;100801.56;;;0.60;100.00
58843;BME280;44614;54.356;10.100;2022-12-07T01:13:22;100812.06;;;0.63;100.00
58843;BME280;44614;54.356;10.100;2022-12-07T01:15:47;100821.19;;;0.62;100.00
58843;BME280;44614;54.356;10.100;2022-12-07T01:18:13;100815.78;;;0.62;100.00
58843;BME280;44614;54.356;10.100;2022-12-07T01:20:38;100796.41;;;0.49;100.00
58843;BME280;44614;54.356;10.100;2022-12-07T01:23:03;100823.03;;;0.62;100.00
58843;BME280;44614;54.356;10.100;2022-12-07T01:25:29;100826.72;;;0.61;100.00
58843;BME280;44614;54.356;10.100;2022-12-07T01:27:54;100808.47;;;0.55;100.00
58843;BME280;44614;54.356;10.100;2022-12-07T01:30:19;100819.50;;;0.61;100.00
58843;BME280;44614;54.356;10.100;2022-12-07T01:32:45;100822.88;;;0.63;100.00
58843;BME280;44614;54.356;10.100;2022-12-07T01:35:10;100826.41;;;0.64;100.00
58843;BME280;44614;54.356;10.100;2022-12-07T01:37:37;100826.09;;;0.67;100.00
58843;BME280;44614;54.356;10.100;2022-12-07T01:40:05;100823.41;;;0.67;100.00
58843;BME280;44614;54.356;10.100;2022-12-07T01:42:32;100826.63;;;0.70;100.00
58843;BME280;44614;54.356;10.100;2022-12-07T01:48:01;100821.06;;;0.72;100.00
58843;BME280;44614;54.356;10.100;2022-12-07T01:50:27;100833.41;;;0.75;100.00
58843;BME280;44614;54.356;10.100;2022-12-07T01:52:58;100824.28;;;0.76;100.00
58843;BME280;44614;54.356;10.100;2022-12-07T01:55:25;100831.41;;;0.77;100.00
58843;BME280;44614;54.356;10.100;2022-12-07T01:57:52;100809.63;;;0.78;100.00
58843;BME280;44614;54.356;10.100;2022-12-07T02:00:19;100819.41;;;0.79;100.00
58843;BME280;44614;54.356;10.100;2022-12-07T02:03:02;100773.66;;;0.52;100.00
58843;BME280;44614;54.356;10.100;2022-12-07T02:05:30;100816.56;;;0.81;100.00
58843;BME280;44614;54.356;10.100;2022-12-07T02:07:56;100820.97;;;0.82;100.00
58843;BME280;44614;54.356;10.100;2022-12-07T02:10:25;100789.78;;;0.61;100.00
58843;BME280;44614;54.356;10.100;2022-12-07T02:12:55;100814.72;;;0.81;100.00
58843;BME280;44614;54.356;10.100;2022-12-07T02:15:26;100811.16;;;0.81;100.00
58843;BME280;44614;54.356;10.100;2022-12-07T02:18:05;100801.81;;;0.75;100.00
58843;BME280;44614;54.356;10.100;2022-12-07T02:24:13;100820.13;;;0.81;100.00
58843;BME280;44614;54.356;10.100;2022-12-07T02:29:19;100806.22;;;0.76;100.00
58843;BME280;44614;54.356;10.100;2022-12-07T02:31:55;100802.66;;;0.76;100.00
58843;BME280;44614;54.356;10.100;2022-12-07T02:34:31;100802.66;;;0.76;100.00
58843;BME280;44614;54.356;10.100;2022-12-07T02:37:01;100806.38;;;0.75;100.00
58843;BME280;44614;54.356;10.100;2022-12-07T02:39:40;100794.47;;;0.59;100.00
58843;BME280;44614;54.356;10.100;2022-12-07T02:42:15;100818.16;;;0.65;100.00
58843;BME280;44614;54.356;10.100;2022-12-07T02:44:43;100827.13;;;0.66;100.00
58843;BME280;44614;54.356;10.100;2022-12-07T02:47:12;100824.72;;;0.63;100.00
58843;BME280;44614;54.356;10.100;2022-12-07T02:49:40;100827.59;;;0.61;100.00
58843;BME280;44614;54.356;10.100;2022-12-07T02:52:05;100819.28;;;0.55;100.00
58843;BME280;44614;54.356;10.100;2022-12-07T02:54:30;100827.59;;;0.61;100.00
58843;BME280;44614;54.356;10.100;2022-12-07T03:00:06;100836.69;;;0.60;100.00
58843;BME280;44614;54.356;10.100;2022-12-07T03:10:52;100834.47;;;0.56;100.00
58843;BME280;44614;54.356;10.100;2022-12-07T03:16:23;100803.94;;;0.37;100.00
58843;BME280;44614;54.356;10.100;2022-12-07T03:19:13;100829.56;;;0.51;100.00
58843;BME280;44614;54.356;10.100;2022-12-07T03:21:48;100819.38;;;0.45;100.00
58843;BME280;44614;54.356;10.100;2022-12-07T03:24:18;100836.81;;;0.51;100.00
58843;BME280;44614;54.356;10.100;2022-12-07T03:26:48;100839.66;;;0.49;100.00
58843;BME280;44614;54.356;10.100;2022-12-07T03:29:39;100830.56;;;0.50;100.00
58843;BME280;44614;54.356;10.100;2022-12-07T03:34:47;100830.72;;;0.48;100.00
58843;BME280;44614;54.356;10.100;2022-12-07T03:37:39;100830.88;;;0.47;100.00
58843;BME280;44614;54.356;10.100;2022-12-07T03:40:27;100825.47;;;0.47;100.00
58843;BME280;44614;54.356;10.100;2022-12-07T03:42:55;100818.38;;;0.46;100.00
58843;BME280;44614;54.356;10.100;2022-12-07T03:45:27;100818.22;;;0.47;100.00
58843;BME280;44614;54.356;10.100;2022-12-07T03:48:04;100789.72;;;0.27;100.00
58843;BME280;44614;54.356;10.100;2022-12-07T03:50:43;100817.84;;;0.42;100.00
58843;BME280;44614;54.356;10.100;2022-12-07T03:53:39;100821.53;;;0.41;100.00
58843;BME280;44614;54.356;10.100;2022-12-07T03:56:06;100789.13;;;0.15;100.00
58843;BME280;44614;54.356;10.100;2022-12-07T03:58:34;100817.63;;;0.36;100.00
58843;BME280;44614;54.356;10.100;2022-12-07T04:00:59;100814.91;;;0.36;100.00
58843;BME280;44614;54.356;10.100;2022-12-07T04:03:25;100814.56;;;0.31;100.00
58843;BME280;44614;54.356;10.100;2022-12-07T04:05:50;100818.94;;;0.32;100.00
58843;BME280;44614;54.356;10.100;2022-12-07T04:08:15;100763.69;;;0.00;100.00
58843;BME280;44614;54.356;10.100;2022-12-07T04:10:41;100807.44;;;0.30;100.00
58843;BME280;44614;54.356;10.100;2022-12-07T04:13:06;100819.06;;;0.30;100.00
58843;BME280;44614;54.356;10.100;2022-12-07T04:15:31;100808.97;;;0.32;100.00
58843;BME280;44614;54.356;10.100;2022-12-07T04:17:56;100812.00;;;0.29;100.00
58843;BME280;44614;54.356;10.100;2022-12-07T04:20:22;100826.66;;;0.27;100.00
58843;BME280;44614;54.356;10.100;2022-12-07T04:22:47;100827.84;;;0.24;100.00
58843;BME280;44614;54.356;10.100;2022-12-07T04:25:12;100815.47;;;0.21;100.00
58843;BME280;44614;54.356;10.100;2022-12-07T04:27:38;100807.53;;;0.20;100.00
58843;BME280;44614;54.356;10.100;2022-12-07T04:30:04;100777.84;;;0.02;100.00
58843;BME280;44614;54.356;10.100;2022-12-07T04:32:29;100817.69;;;0.26;100.00
58843;BME280;44614;54.356;10.100;2022-12-07T04:34:54;100796.03;;;0.18;100.00
58843;BME280;44614;54.356;10.100;2022-12-07T04:37:20;100789.91;;;0.08;100.00
58843;BME280;44614;54.356;10.100;2022-12-07T04:39:45;100806.31;;;0.14;100.00
58843;BME280;44614;54.356;10.100;2022-12-07T04:42:11;100794.75;;;0.04;100.00
58843;BME280;44614;54.356;10.100;2022-12-07T04:44:38;100804.78;;;0.12;100.00
58843;BME280;44614;54.356;10.100;2022-12-07T04:47:03;100798.50;;;0.11;100.00
58843;BME280;44614;54.356;10.100;2022-12-07T04:49:29;100798.38;;;0.13;100.00
58843;BME280;44614;54.356;10.100;2022-12-07T04:51:54;100800.22;;;0.12;100.00
58843;BME280;44614;54.356;10.100;2022-12-07T04:54:20;100793.97;;;0.12;100.00
58843;BME280;44614;54.356;10.100;2022-12-07T04:56:45;100763.97;;;-0.03;100.00
58843;BME280;44614;54.356;10.100;2022-12-07T04:59:12;100792.25;;;0.11;100.00
58843;BME280;44614;54.356;10.100;2022-12-07T05:01:38;100758.81;;;-0.14;100.00
58843;BME280;44614;54.356;10.100;2022-12-07T05:04:03;100795.06;;;0.01;100.00
58843;BME280;44614;54.356;10.100;2022-12-07T05:06:28;100795.75;;;0.03;100.00
58843;BME280;44614;54.356;10.100;2022-12-07T05:08:54;100786.97;;;0.01;100.00
58843;BME280;44614;54.356;10.100;2022-12-07T05:11:20;100780.00;;;-0.02;100.00
58843;BME280;44614;54.356;10.100;2022-12-07T05:14:14;100776.00;;;-0.15;100.00
58843;BME280;44614;54.356;10.100;2022-12-07T05:16:40;100784.09;;;-0.15;100.00
58843;BME280;44614;54.356;10.100;2022-12-07T05:19:06;100796.91;;;-0.17;100.00
58843;BME280;44614;54.356;10.100;2022-12-07T05:21:31;100789.13;;;-0.20;100.00
58843;BME280;44614;54.356;10.100;2022-12-07T05:23:57;100794.81;;;-0.23;100.00
58843;BME280;44614;54.356;10.100;2022-12-07T05:26:22;100791.75;;;-0.29;100.00
58843;BME280;44614;54.356;10.100;2022-12-07T05:28:52;100790.38;;;-0.33;100.00
58843;BME280;44614;54.356;10.100;2022-12-07T05:31:18;100739.47;;;-0.63;100.00
58843;BME280;44614;54.356;10.100;2022-12-07T05:33:44;100787.28;;;-0.38;100.00
58843;BME280;44614;54.356;10.100;2022-12-07T05:36:09;100780.34;;;-0.40;100.00
58843;BME280;44614;54.356;10.100;2022-12-07T05:38:34;100778.25;;;-0.46;100.00
58843;BME280;44614;54.356;10.100;2022-12-07T05:41:04;100780.56;;;-0.52;100.00
58843;BME280;44614;54.356;10.100;2022-12-07T05:43:30;100776.94;;;-0.60;100.00
58843;BME280;44614;54.356;10.100;2022-12-07T05:45:56;100783.72;;;-0.56;100.00
58843;BME280;44614;54.356;10.100;2022-12-07T05:48:22;100788.28;;;-0.57;100.00
58843;BME280;44614;54.356;10.100;2022-12-07T05:50:49;100770.53;;;-0.59;100.00
58843;BME280;44614;54.356;10.100;2022-12-07T05:53:15;100778.31;;;-0.56;100.00
58843;BME280;44614;54.356;10.100;2022-12-07T05:55:40;100778.88;;;-0.53;100.00
58843;BME280;44614;54.356;10.100;2022-12-07T05:58:05;100769.94;;;-0.53;100.00
58843;BME280;44614;54.356;10.100;2022-12-07T06:00:49;100773.78;;;-0.56;100.00
58843;BME280;44614;54.356;10.100;2022-12-07T06:03:15;100777.47;;;-0.57;100.00
58843;BME280;44614;54.356;10.100;2022-12-07T06:05:40;100762.44;;;-0.59;100.00
58843;BME280;44614;54.356;10.100;2022-12-07T06:08:05;100756.50;;;-0.63;100.00
58843;BME280;44614;54.356;10.100;2022-12-07T06:10:30;100748.88;;;-0.67;100.00
58843;BME280;44614;54.356;10.100;2022-12-07T06:12:56;100757.97;;;-0.68;100.00
58843;BME280;44614;54.356;10.100;2022-12-07T06:15:21;100761.81;;;-0.71;100.00
58843;BME280;44614;54.356;10.100;2022-12-07T06:17:48;100759.41;;;-0.74;100.00
58843;BME280;44614;54.356;10.100;2022-12-07T06:20:13;100756.59;;;-0.72;100.00
58843;BME280;44614;54.356;10.100;2022-12-07T06:22:38;100760.56;;;-0.77;100.00
58843;BME280;44614;54.356;10.100;2022-12-07T06:25:04;100761.28;;;-0.75;100.00
58843;BME280;44614;54.356;10.100;2022-12-07T06:27:29;100747.69;;;-0.83;100.00
58843;BME280;44614;54.356;10.100;2022-12-07T06:29:55;100761.97;;;-0.72;100.00
58843;BME280;44614;54.356;10.100;2022-12-07T06:32:20;100725.63;;;-0.96;100.00
58843;BME280;44614;54.356;10.100;2022-12-07T06:34:45;100754.47;;;-0.79;100.00
58843;BME280;44614;54.356;10.100;2022-12-07T06:37:12;100764.25;;;-0.78;100.00
58843;BME280;44614;54.356;10.100;2022-12-07T06:39:37;100764.56;;;-0.81;100.00
58843;BME280;44614;54.356;10.100;2022-12-07T06:42:03;100732.63;;;-1.03;100.00
58843;BME280;44614;54.356;10.100;2022-12-07T06:44:29;100762.03;;;-0.82;100.00
58843;BME280;44614;54.356;10.100;2022-12-07T06:46:54;100758.94;;;-0.87;100.00
58843;BME280;44614;54.356;10.100;2022-12-07T06:49:20;100764.88;;;-0.84;100.00
58843;BME280;44614;54.356;10.100;2022-12-07T06:51:45;100772.66;;;-0.81;100.00
58843;BME280;44614;54.356;10.100;2022-12-07T06:54:12;100765.31;;;-0.88;100.00
58843;BME280;44614;54.356;10.100;2022-12-07T06:56:38;100761.19;;;-0.83;100.00
58843;BME280;44614;54.356;10.100;2022-12-07T06:59:03;100771.13;;;-0.83;100.00
58843;BME280;44614;54.356;10.100;2022-12-07T07:01:30;100772.25;;;-0.86;100.00
58843;BME280;44614;54.356;10.100;2022-12-07T07:03:56;100769.56;;;-0.86;100.00
58843;BME280;44614;54.356;10.100;2022-12-07T07:06:21;100765.03;;;-0.85;100.00
58843;BME280;44614;54.356;10.100;2022-12-07T07:08:46;100761.47;;;-0.86;100.00
58843;BME280;44614;54.356;10.100;2022-12-07T07:11:13;100769.56;;;-0.86;100.00
58843;BME280;44614;54.356;10.100;2022-12-07T07:13:38;100765.19;;;-0.87;100.00
58843;BME280;44614;54.356;10.100;2022-12-07T07:16:05;100761.63;;;-0.87;100.00
58843;BME280;44614;54.356;10.100;2022-12-07T07:18:30;100723.59;;;-1.12;100.00
58843;BME280;44614;54.356;10.100;2022-12-07T07:20:56;100767.16;;;-0.89;100.00
58843;BME280;44614;54.356;10.100;2022-12-07T07:23:22;100774.25;;;-0.88;100.00
58843;BME280;44614;54.356;10.100;2022-12-07T07:25:48;100768.84;;;-0.88;100.00
58843;BME280;44614;54.356;10.100;2022-12-07T07:28:14;100775.97;;;-0.87;100.00
58843;BME280;44614;54.356;10.100;2022-12-07T07:30:39;100772.25;;;-0.86;100.00
58843;BME280;44614;54.356;10.100;2022-12-07T07:33:05;100783.06;;;-0.86;100.00
58843;BME280;44614;54.356;10.100;2022-12-07T07:35:32;100785.03;;;-0.88;100.00
58843;BME280;44614;54.356;10.100;2022-12-07T07:37:58;100785.91;;;-0.87;100.00
58843;BME280;44614;54.356;10.100;2022-12-07T07:40:24;100792.28;;;-0.88;100.00
58843;BME280;44614;54.356;10.100;2022-12-07T07:42:50;100794.97;;;-0.88;100.00
58843;BME280;44614;54.356;10.100;2022-12-07T07:45:16;100762.88;;;-1.09;100.00
58843;BME280;44614;54.356;10.100;2022-12-07T07:47:42;100790.75;;;-0.91;100.00
58843;BME280;44614;54.356;10.100;2022-12-07T07:50:07;100793.84;;;-0.86;100.00
58843;BME280;44614;54.356;10.100;2022-12-07T07:52:33;100799.06;;;-0.84;100.00
58843;BME280;44614;54.356;10.100;2022-12-07T07:54:58;100765.84;;;-1.03;100.00
58843;BME280;44614;54.356;10.100;2022-12-07T07:57:23;100801.34;;;-0.80;100.00
58843;BME280;44614;54.356;10.100;2022-12-07T07:59:49;100802.84;;;-0.77;100.00
58843;BME280;44614;54.356;10.100;2022-12-07T08:02:16;100788.16;;;-0.83;100.00
58843;BME280;44614;54.356;10.100;2022-12-07T08:04:42;100800.25;;;-0.69;100.00
58843;BME280;44614;54.356;10.100;2022-12-07T08:07:08;100761.22;;;-0.92;100.00
58843;BME280;44614;54.356;10.100;2022-12-07T08:09:33;100796.41;;;-0.66;100.00
58843;BME280;44614;54.356;10.100;2022-12-07T08:11:59;100802.53;;;-0.64;100.00
58843;BME280;44614;54.356;10.100;2022-12-07T08:14:24;100805.22;;;-0.64;100.00
58843;BME280;44614;54.356;10.100;2022-12-07T08:16:50;100796.13;;;-0.63;100.00
58843;BME280;44614;54.356;10.100;2022-12-07T08:19:16;100802.53;;;-0.64;100.00
58843;BME280;44614;54.356;10.100;2022-12-07T08:21:41;100793.72;;;-0.66;100.00
58843;BME280;44614;54.356;10.100;2022-12-07T08:24:07;100795.56;;;-0.67;100.00
58843;BME280;44614;54.356;10.100;2022-12-07T08:26:32;100803.91;;;-0.60;100.00
58843;BME280;44614;54.356;10.100;2022-12-07T08:29:20;100809.13;;;-0.59;100.00
58843;BME280;44614;54.356;10.100;2022-12-07T08:31:46;100809.00;;;-0.57;100.00
58843;BME280;44614;54.356;10.100;2022-12-07T08:34:13;100804.28;;;-0.55;100.00
58843;BME280;44614;54.356;10.100;2022-12-07T08:36:38;100805.00;;;-0.53;100.00
58843;BME280;44614;54.356;10.100;2022-12-07T08:39:04;100803.84;;;-0.51;100.00
58843;BME280;44614;54.356;10.100;2022-12-07T08:41:29;100811.78;;;-0.49;100.00
58843;BME280;44614;54.356;10.100;2022-12-07T08:43:55;100807.25;;;-0.48;100.00
58843;BME280;44614;54.356;10.100;2022-12-07T08:51:32;100801.22;;;-0.42;100.00
58843;BME280;44614;54.356;10.100;2022-12-07T08:53:58;100802.94;;;-0.41;100.00
58843;BME280;44614;54.356;10.100;2022-12-07T08:56:26;100813.56;;;-0.40;100.00
58843;BME280;44614;54.356;10.100;2022-12-07T08:58:52;100657.59;;;-1.26;100.00
58843;BME280;44614;54.356;10.100;2022-12-07T09:01:18;100807.88;;;-0.37;100.00
58843;BME280;44614;54.356;10.100;2022-12-07T09:03:43;100809.44;;;-0.34;100.00
58843;BME280;44614;54.356;10.100;2022-12-07T09:06:08;100805.53;;;-0.32;100.00
58843;BME280;44614;54.356;10.100;2022-12-07T09:08:41;100764.00;;;-0.57;100.00
58843;BME280;44614;54.356;10.100;2022-12-07T09:11:07;100814.06;;;-0.27;100.00
58843;BME280;44614;54.356;10.100;2022-12-07T09:13:32;100809.16;;;-0.23;100.00
58843;BME280;44614;54.356;10.100;2022-12-07T09:15:58;100805.19;;;-0.19;100.00
58843;BME280;44614;54.356;10.100;2022-12-07T09:18:23;100795.59;;;-0.13;100.00
58843;BME280;44614;54.356;10.100;2022-12-07T09:20:50;100799.00;;;-0.11;100.00
58843;BME280;44614;54.356;10.100;2022-12-07T09:23:15;100794.13;;;-0.08;100.00
58843;BME280;44614;54.356;10.100;2022-12-07T09:25:40;100796.53;;;-0.05;100.00
58843;BME280;44614;54.356;10.100;2022-12-07T09:28:06;100795.38;;;-0.02;100.00
58843;BME280;44614;54.356;10.100;2022-12-07T09:30:31;100793.22;;;0.02;100.00
58843;BME280;44614;54.356;10.100;2022-12-07T09:32:57;100791.03;;;0.05;100.00
58843;BME280;44614;54.356;10.100;2022-12-07T09:35:23;100789.19;;;0.06;100.00
58843;BME280;44614;54.356;10.100;2022-12-07T09:37:48;100787.69;;;0.11;100.00
58843;BME280;44614;54.356;10.100;2022-12-07T09:40:15;100785.72;;;0.13;100.00
58843;BME280;44614;54.356;10.100;2022-12-07T09:42:44;100783.00;;;0.13;100.00
58843;BME280;44614;54.356;10.100;2022-12-07T09:45:15;100789.63;;;0.19;100.00
58843;BME280;44614;54.356;10.100;2022-12-07T09:47:44;100795.72;;;0.21;100.00
58843;BME280;44614;54.356;10.100;2022-12-07T09:50:19;100771.91;;;0.16;100.00
58843;BME280;44614;54.356;10.100;2022-12-07T09:52:47;100737.34;;;0.02;100.00
58843;BME280;44614;54.356;10.100;2022-12-07T09:55:15;100783.81;;;0.32;100.00
58843;BME280;44614;54.356;10.100;2022-12-07T09:57:42;100744.19;;;0.14;100.00
58843;BME280;44614;54.356;10.100;2022-12-07T10:00:19;100743.03;;;0.17;100.00
58843;BME280;44614;54.356;10.100;2022-12-07T10:02:58;100783.34;;;0.36;100.00
58843;BME280;44614;54.356;10.100;2022-12-07T10:05:38;100774.94;;;0.39;100.00
58843;BME280;44614;54.356;10.100;2022-12-07T10:08:07;100777.63;;;0.39;100.00
58843;BME280;44614;54.356;10.100;2022-12-07T10:10:33;100779.84;;;0.44;100.00
58843;BME280;44614;54.356;10.100;2022-12-07T10:13:04;100771.56;;;0.45;100.00
58843;BME280;44614;54.356;10.100;2022-12-07T10:15:44;100775.16;;;0.46;99.66
58843;BME280;44614;54.356;10.100;2022-12-07T10:18:19;100769.75;;;0.46;99.00
58843;BME280;44614;54.356;10.100;2022-12-07T10:20:46;100775.81;;;0.48;99.45
58843;BME280;44614;54.356;10.100;2022-12-07T10:23:17;100771.13;;;0.50;99.19
58843;BME280;44614;54.356;10.100;2022-12-07T10:25:44;100774.50;;;0.52;97.91
58843;BME280;44614;54.356;10.100;2022-12-07T10:28:17;100779.22;;;0.50;96.83
58843;BME280;44614;54.356;10.100;2022-12-07T10:33:53;100773.16;;;0.56;96.70
58843;BME280;44614;54.356;10.100;2022-12-07T10:38:52;100771.53;;;0.63;96.95
58843;BME280;44614;54.356;10.100;2022-12-07T10:41:18;100770.38;;;0.66;97.89
58843;BME280;44614;54.356;10.100;2022-12-07T10:43:51;100774.78;;;0.75;98.04
58843;BME280;44614;54.356;10.100;2022-12-07T10:46:23;100774.66;;;0.77;96.64
58843;BME280;44614;54.356;10.100;2022-12-07T10:51:46;100763.88;;;0.85;96.29
58843;BME280;44614;54.356;10.100;2022-12-07T10:54:38;100761.00;;;0.86;94.14
58843;BME280;44614;54.356;10.100;2022-12-07T10:57:38;100753.41;;;0.90;94.44
58843;BME280;44614;54.356;10.100;2022-12-07T11:00:17;100757.66;;;0.92;93.63
58843;BME280;44614;54.356;10.100;2022-12-07T11:13:40;100752.31;;;1.09;93.75
58843;BME280;44614;54.356;10.100;2022-12-07T11:16:23;100721.00;;;0.98;94.34
58843;BME280;44614;54.356;10.100;2022-12-07T11:19:05;100744.38;;;1.15;93.52
58843;BME280;44614;54.356;10.100;2022-12-07T11:21:57;100744.06;;;1.18;93.74
58843;BME280;44614;54.356;10.100;2022-12-07T11:24:50;100745.06;;;1.17;89.46
58843;BME280;44614;54.356;10.100;2022-12-07T11:27:39;100739.50;;;1.19;90.37
58843;BME280;44614;54.356;10.100;2022-12-07T11:30:12;100745.56;;;1.21;90.97
58843;BME280;44614;54.356;10.100;2022-12-07T11:32:42;100743.72;;;1.21;91.21
58843;BME280;44614;54.356;10.100;2022-12-07T11:35:27;100726.63;;;1.21;92.04
58843;BME280;44614;54.356;10.100;2022-12-07T11:38:01;100731.41;;;1.27;91.68
58843;BME280;44614;54.356;10.100;2022-12-07T11:40:36;100728.69;;;1.27;90.12
58843;BME280;44614;54.356;10.100;2022-12-07T11:43:18;100715.50;;;1.24;91.93
58843;BME280;44614;54.356;10.100;2022-12-07T11:45:50;100725.31;;;1.33;91.87
58843;BME280;44614;54.356;10.100;2022-12-07T11:48:45;100725.81;;;1.37;90.55
58843;BME280;44614;54.356;10.100;2022-12-07T11:51:12;100723.97;;;1.37;90.13
58843;BME280;44614;54.356;10.100;2022-12-07T11:53:48;100717.69;;;1.37;89.84
58843;BME280;44614;54.356;10.100;2022-12-07T11:56:16;100718.22;;;1.40;89.59
58843;BME280;44614;54.356;10.100;2022-12-07T12:03:42;100721.13;;;1.47;88.89
58843;BME280;44614;54.356;10.100;2022-12-07T12:06:08;100710.78;;;1.42;88.77
58843;BME280;44614;54.356;10.100;2022-12-07T12:08:39;100727.88;;;1.51;88.69
58843;BME280;44614;54.356;10.100;2022-12-07T12:16:48;100687.94;;;1.37;88.42
58843;BME280;44614;54.356;10.100;2022-12-07T12:19:36;100721.97;;;1.56;86.26
58843;BME280;44614;54.356;10.100;2022-12-07T12:24:37;100712.66;;;1.58;88.83
58843;BME280;44614;54.356;10.100;2022-12-07T12:27:08;100722.47;;;1.59;88.11
58843;BME280;44614;54.356;10.100;2022-12-07T12:29:37;100727.38;;;1.56;87.87
58843;BME280;44614;54.356;10.100;2022-12-07T12:32:38;100725.50;;;1.56;87.21
58843;BME280;44614;54.356;10.100;2022-12-07T12:35:32;100725.34;;;1.50;88.17
58843;BME280;44614;54.356;10.100;2022-12-07T12:38:25;100726.34;;;1.49;88.93
58843;BME280;44614;54.356;10.100;2022-12-07T12:40:53;100732.78;;;1.48;89.03
58843;BME280;44614;54.356;10.100;2022-12-07T13:02:00;100713.63;;;1.33;90.41
58843;BME280;44614;54.356;10.100;2022-12-07T13:04:52;100743.09;;;1.44;90.32
58843;BME280;44614;54.356;10.100;2022-12-07T13:18:04;100703.00;;;1.39;90.79
58843;BME280;44614;54.356;10.100;2022-12-07T13:23:35;100729.22;;;1.39;90.06
58843;BME280;44614;54.356;10.100;2022-12-07T13:26:06;100725.81;;;1.29;89.73
58843;BME280;44614;54.356;10.100;2022-12-07T13:28:42;100725.47;;;1.24;90.44
58843;BME280;44614;54.356;10.100;2022-12-07T13:31:15;100735.06;;;1.18;90.02
58843;BME280;44614;54.356;10.100;2022-12-07T13:33:45;100746.25;;;1.15;91.42
58843;BME280;44614;54.356;10.100;2022-12-07T13:36:23;100749.78;;;1.15;92.96
58843;BME280;44614;54.356;10.100;2022-12-07T13:39:00;100729.31;;;1.13;93.05
58843;BME280;44614;54.356;10.100;2022-12-07T13:41:34;100744.72;;;1.12;93.16
58843;BME280;44614;54.356;10.100;2022-12-07T13:44:12;100731.47;;;1.01;92.86
58843;BME280;44614;54.356;10.100;2022-12-07T13:49:21;100750.59;;;1.00;92.26
58843;BME280;44614;54.356;10.100;2022-12-07T13:51:47;100749.38;;;0.94;91.68
58843;BME280;44614;54.356;10.100;2022-12-07T13:54:14;100749.34;;;0.86;90.42
58843;BME280;44614;54.356;10.100;2022-12-07T13:56:40;100747.97;;;0.82;90.68
58843;BME280;44614;54.356;10.100;2022-12-07T13:59:21;100744.56;;;0.80;91.23
58843;BME280;44614;54.356;10.100;2022-12-07T14:01:49;100751.16;;;0.77;92.02
58843;BME280;44614;54.356;10.100;2022-12-07T14:04:35;100749.28;;;0.69;91.35
58843;BME280;44614;54.356;10.100;2022-12-07T14:09:55;100755.53;;;0.70;92.20
58843;BME280;44614;54.356;10.100;2022-12-07T14:12:20;100746.53;;;0.61;90.84
58843;BME280;44614;54.356;10.100;2022-12-07T14:14:47;100741.97;;;0.62;92.32
58843;BME280;44614;54.356;10.100;2022-12-07T14:17:22;100733.13;;;0.52;92.60
58843;BME280;44614;54.356;10.100;2022-12-07T14:19:51;100759.03;;;0.62;92.53
58843;BME280;44614;54.356;10.100;2022-12-07T14:24:47;100757.34;;;0.61;92.52
58843;BME280;44614;54.356;10.100;2022-12-07T14:27:17;100760.88;;;0.62;93.44
58843;BME280;44614;54.356;10.100;2022-12-07T14:29:43;100764.03;;;0.57;94.10
58843;BME280;44614;54.356;10.100;2022-12-07T14:32:22;100756.63;;;0.59;94.17
58843;BME280;44614;54.356;10.100;2022-12-07T14:35:08;100754.56;;;0.53;93.67